JP-0074 weather

Kagawa University Hospital Helipad
Miki-cho, Kagawa Prefecture, Japan

Public forecast

Using degrees Celsius for public forecast. Weather courtesy of forecast.io.

METAR (pilot weather report)

Report is more than 6 hours old.

Closest report is Takamatsu Airport, 7.1 nm (13.1 km) SW. Retrieved 2019/05/24 12:00 UTC (7 hours ago):

RJOT 241200Z 15008KT CAVOK 20/09 Q1014

TAF (pilot weather forecast)

Closest forecast is Takamatsu Airport, 7.1 nm (13.1 km) SW. Retrieved 2019/05/24 18:00 UTC (1 hour ago):

TAF RJOT 241707Z 2418/2600 15009KT CAVOK BECMG 2422/2500 28007KT BECMG 2504/2506 36005KT BECMG 2521/2600 30005KT